sensor_id;sensor_type;location;lat;lon;timestamp;pressure;altitude;pressure_sealevel;temperature;humidity
58473;BME280;44775;51.564;5.460;2024-03-23T00:54:09;100783.31;;;5.48;100.00
58473;BME280;44775;51.564;5.460;2024-03-23T00:56:34;100780.94;;;5.44;100.00
58473;BME280;44775;51.564;5.460;2024-03-23T00:58:59;100785.66;;;5.41;100.00
58473;BME280;44775;51.564;5.460;2024-03-23T01:01:24;100778.56;;;5.41;100.00
58473;BME280;44775;51.564;5.460;2024-03-23T01:03:49;100777.72;;;5.41;100.00
58473;BME280;44775;51.564;5.460;2024-03-23T01:06:15;100781.19;;;5.41;100.00
58473;BME280;44775;51.564;5.460;2024-03-23T01:08:40;100776.63;;;5.43;100.00
58473;BME280;44775;51.564;5.460;2024-03-23T01:11:05;100771.72;;;5.49;100.00
58473;BME280;44775;51.564;5.460;2024-03-23T01:13:30;100780.53;;;5.59;100.00
58473;BME280;44775;51.564;5.460;2024-03-23T01:15:56;100774.66;;;5.45;100.00
58473;BME280;44775;51.564;5.460;2024-03-23T01:18:23;100783.88;;;5.51;100.00
58473;BME280;44775;51.564;5.460;2024-03-23T01:20:48;100783.03;;;5.51;100.00
58473;BME280;44775;51.564;5.460;2024-03-23T01:23:14;100775.22;;;5.59;100.00
58473;BME280;44775;51.564;5.460;2024-03-23T01:25:39;100762.97;;;5.58;100.00
58473;BME280;44775;51.564;5.460;2024-03-23T01:28:04;100773.13;;;5.53;100.00
58473;BME280;44775;51.564;5.460;2024-03-23T01:30:31;100766.88;;;5.54;100.00
58473;BME280;44775;51.564;5.460;2024-03-23T01:32:56;100770.06;;;5.57;100.00
58473;BME280;44775;51.564;5.460;2024-03-23T01:35:21;100754.56;;;5.53;100.00
58473;BME280;44775;51.564;5.460;2024-03-23T01:37:47;100744.50;;;5.47;100.00
58473;BME280;44775;51.564;5.460;2024-03-23T01:40:12;100737.97;;;5.41;100.00
58473;BME280;44775;51.564;5.460;2024-03-23T01:42:38;100739.50;;;5.34;100.00
58473;BME280;44775;51.564;5.460;2024-03-23T01:45:04;100737.50;;;5.26;100.00
58473;BME280;44775;51.564;5.460;2024-03-23T01:47:32;100738.38;;;5.27;100.00
58473;BME280;44775;51.564;5.460;2024-03-23T01:49:58;100735.56;;;5.28;100.00
58473;BME280;44775;51.564;5.460;2024-03-23T01:52:23;100730.16;;;5.59;100.00
58473;BME280;44775;51.564;5.460;2024-03-23T01:54:48;100726.66;;;5.49;100.00
58473;BME280;44775;51.564;5.460;2024-03-23T01:57:13;100708.53;;;5.44;100.00
58473;BME280;44775;51.564;5.460;2024-03-23T01:59:39;100700.44;;;5.45;100.00
58473;BME280;44775;51.564;5.460;2024-03-23T02:02:04;100708.25;;;5.37;100.00
58473;BME280;44775;51.564;5.460;2024-03-23T02:04:29;100713.28;;;5.40;100.00
58473;BME280;44775;51.564;5.460;2024-03-23T02:06:54;100736.56;;;5.27;100.00
58473;BME280;44775;51.564;5.460;2024-03-23T02:09:19;100723.03;;;5.50;100.00
58473;BME280;44775;51.564;5.460;2024-03-23T02:11:45;100727.75;;;5.36;100.00
58473;BME280;44775;51.564;5.460;2024-03-23T02:14:10;100729.19;;;5.40;100.00
58473;BME280;44775;51.564;5.460;2024-03-23T02:16:35;100719.13;;;5.34;100.00
58473;BME280;44775;51.564;5.460;2024-03-23T02:19:00;100721.63;;;5.36;100.00
58473;BME280;44775;51.564;5.460;2024-03-23T02:21:26;100715.50;;;5.35;100.00
58473;BME280;44775;51.564;5.460;2024-03-23T02:23:52;100712.56;;;5.29;100.00
58473;BME280;44775;51.564;5.460;2024-03-23T02:26:17;100715.22;;;5.29;100.00
58473;BME280;44775;51.564;5.460;2024-03-23T02:28:43;100708.53;;;5.25;100.00
58473;BME280;44775;51.564;5.460;2024-03-23T02:31:08;100704.34;;;5.32;100.00
58473;BME280;44775;51.564;5.460;2024-03-23T02:33:33;100702.38;;;5.24;100.00
58473;BME280;44775;51.564;5.460;2024-03-23T02:35:59;100696.38;;;5.22;100.00
58473;BME280;44775;51.564;5.460;2024-03-23T02:38:25;100700.13;;;5.19;100.00
58473;BME280;44775;51.564;5.460;2024-03-23T02:40:50;100702.66;;;5.21;100.00
58473;BME280;44775;51.564;5.460;2024-03-23T02:43:15;100706.03;;;5.23;100.00
58473;BME280;44775;51.564;5.460;2024-03-23T02:45:40;100704.75;;;5.17;100.00
58473;BME280;44775;51.564;5.460;2024-03-23T02:48:05;100700.84;;;5.21;100.00
58473;BME280;44775;51.564;5.460;2024-03-23T02:50:31;100695.97;;;5.17;100.00
58473;BME280;44775;51.564;5.460;2024-03-23T02:52:56;100696.91;;;5.16;100.00
58473;BME280;44775;51.564;5.460;2024-03-23T02:55:21;100703.19;;;5.15;100.00
58473;BME280;44775;51.564;5.460;2024-03-23T02:57:46;100699.28;;;5.19;100.00
58473;BME280;44775;51.564;5.460;2024-03-23T03:00:12;100694.28;;;5.16;100.00
58473;BME280;44775;51.564;5.460;2024-03-23T03:02:37;100694.44;;;5.14;100.00
58473;BME280;44775;51.564;5.460;2024-03-23T03:05:03;100700.97;;;5.10;100.00
58473;BME280;44775;51.564;5.460;2024-03-23T03:07:30;100705.44;;;5.10;100.00
58473;BME280;44775;51.564;5.460;2024-03-23T03:09:55;100707.22;;;5.09;100.00
58473;BME280;44775;51.564;5.460;2024-03-23T03:12:20;100708.78;;;5.12;100.00
58473;BME280;44775;51.564;5.460;2024-03-23T03:14:45;100704.72;;;5.08;100.00
58473;BME280;44775;51.564;5.460;2024-03-23T03:17:10;100715.31;;;5.08;100.00
58473;BME280;44775;51.564;5.460;2024-03-23T03:19:36;100711.13;;;5.05;100.00
58473;BME280;44775;51.564;5.460;2024-03-23T03:22:01;100713.78;;;5.05;100.00
58473;BME280;44775;51.564;5.460;2024-03-23T03:24:26;100708.91;;;5.01;100.00
58473;BME280;44775;51.564;5.460;2024-03-23T03:26:51;100711.41;;;5.02;100.00
58473;BME280;44775;51.564;5.460;2024-03-23T03:29:16;100710.16;;;4.96;100.00
58473;BME280;44775;51.564;5.460;2024-03-23T03:31:42;100701.00;;;5.20;100.00
58473;BME280;44775;51.564;5.460;2024-03-23T03:34:07;100706.63;;;4.96;100.00
58473;BME280;44775;51.564;5.460;2024-03-23T03:36:32;100697.28;;;4.92;100.00
58473;BME280;44775;51.564;5.460;2024-03-23T03:38:58;100701.06;;;4.89;100.00
58473;BME280;44775;51.564;5.460;2024-03-23T03:41:23;100698.66;;;4.77;100.00
58473;BME280;44775;51.564;5.460;2024-03-23T03:43:48;100693.06;;;4.70;100.00
58473;BME280;44775;51.564;5.460;2024-03-23T03:46:13;100700.53;;;4.55;100.00
58473;BME280;44775;51.564;5.460;2024-03-23T03:48:38;100696.72;;;4.48;100.00
58473;BME280;44775;51.564;5.460;2024-03-23T03:51:04;100694.59;;;4.42;100.00
58473;BME280;44775;51.564;5.460;2024-03-23T03:53:29;100693.34;;;4.36;100.00
58473;BME280;44775;51.564;5.460;2024-03-23T03:55:55;100692.22;;;4.29;100.00
58473;BME280;44775;51.564;5.460;2024-03-23T03:58:20;100692.28;;;4.18;100.00
58473;BME280;44775;51.564;5.460;2024-03-23T04:00:45;100684.47;;;4.16;100.00
58473;BME280;44775;51.564;5.460;2024-03-23T04:03:11;100682.25;;;4.12;100.00
58473;BME280;44775;51.564;5.460;2024-03-23T04:05:36;100690.81;;;4.04;100.00
58473;BME280;44775;51.564;5.460;2024-03-23T04:08:01;100693.97;;;3.98;100.00
58473;BME280;44775;51.564;5.460;2024-03-23T04:10:26;100692.19;;;3.98;100.00
58473;BME280;44775;51.564;5.460;2024-03-23T04:12:52;100684.88;;;3.91;100.00
58473;BME280;44775;51.564;5.460;2024-03-23T04:15:17;100685.13;;;3.88;100.00
58473;BME280;44775;51.564;5.460;2024-03-23T04:17:42;100684.69;;;3.83;100.00
58473;BME280;44775;51.564;5.460;2024-03-23T04:20:08;100684.22;;;3.77;100.00
58473;BME280;44775;51.564;5.460;2024-03-23T04:22:36;100681.72;;;3.76;100.00
58473;BME280;44775;51.564;5.460;2024-03-23T04:25:01;100685.09;;;3.78;100.00
58473;BME280;44775;51.564;5.460;2024-03-23T04:27:34;100682.13;;;3.71;100.00
58473;BME280;44775;51.564;5.460;2024-03-23T04:29:59;100676.69;;;3.73;100.00
58473;BME280;44775;51.564;5.460;2024-03-23T04:32:28;100681.66;;;3.66;100.00
58473;BME280;44775;51.564;5.460;2024-03-23T04:34:54;100681.81;;;3.65;100.00
58473;BME280;44775;51.564;5.460;2024-03-23T04:37:19;100685.38;;;3.64;100.00
58473;BME280;44775;51.564;5.460;2024-03-23T04:39:45;100683.97;;;3.60;100.00
58473;BME280;44775;51.564;5.460;2024-03-23T04:42:10;100690.22;;;3.59;100.00
58473;BME280;44775;51.564;5.460;2024-03-23T04:44:35;100690.09;;;3.60;100.00
58473;BME280;44775;51.564;5.460;2024-03-23T04:47:00;100684.94;;;3.59;100.00
58473;BME280;44775;51.564;5.460;2024-03-23T04:49:26;100688.34;;;3.49;100.00
58473;BME280;44775;51.564;5.460;2024-03-23T04:51:51;100685.94;;;3.46;100.00
58473;BME280;44775;51.564;5.460;2024-03-23T04:54:16;100686.09;;;3.45;100.00
58473;BME280;44775;51.564;5.460;2024-03-23T04:56:41;100697.94;;;3.50;100.00
58473;BME280;44775;51.564;5.460;2024-03-23T04:59:07;100686.34;;;3.42;100.00
58473;BME280;44775;51.564;5.460;2024-03-23T05:01:32;100681.16;;;3.40;100.00
58473;BME280;44775;51.564;5.460;2024-03-23T05:03:58;100689.94;;;3.41;100.00
58473;BME280;44775;51.564;5.460;2024-03-23T05:06:23;100689.81;;;3.42;100.00
58473;BME280;44775;51.564;5.460;2024-03-23T05:08:49;100681.66;;;3.34;100.00
58473;BME280;44775;51.564;5.460;2024-03-23T05:11:14;100682.63;;;3.33;100.00
58473;BME280;44775;51.564;5.460;2024-03-23T05:13:40;100684.59;;;3.31;100.00
58473;BME280;44775;51.564;5.460;2024-03-23T05:16:06;100678.59;;;3.29;100.00
58473;BME280;44775;51.564;5.460;2024-03-23T05:18:31;100679.88;;;3.35;100.00
58473;BME280;44775;51.564;5.460;2024-03-23T05:20:57;100675.22;;;3.27;100.00
58473;BME280;44775;51.564;5.460;2024-03-23T05:23:22;100677.84;;;3.27;100.00
58473;BME280;44775;51.564;5.460;2024-03-23T05:25:48;100682.44;;;3.25;100.00
58473;BME280;44775;51.564;5.460;2024-03-23T05:28:13;100681.22;;;3.29;100.00
58473;BME280;44775;51.564;5.460;2024-03-23T05:30:38;100681.94;;;3.31;100.00
58473;BME280;44775;51.564;5.460;2024-03-23T05:33:03;100685.38;;;3.43;100.00
58473;BME280;44775;51.564;5.460;2024-03-23T05:35:29;100678.34;;;3.32;100.00
58473;BME280;44775;51.564;5.460;2024-03-23T05:37:54;100678.44;;;3.30;100.00
58473;BME280;44775;51.564;5.460;2024-03-23T05:40:19;100671.75;;;3.26;100.00
58473;BME280;44775;51.564;5.460;2024-03-23T05:42:44;100670.81;;;3.27;100.00
58473;BME280;44775;51.564;5.460;2024-03-23T05:45:09;100678.91;;;3.36;100.00
58473;BME280;44775;51.564;5.460;2024-03-23T05:47:36;100673.50;;;3.37;100.00
58473;BME280;44775;51.564;5.460;2024-03-23T05:50:01;100683.03;;;3.28;100.00
58473;BME280;44775;51.564;5.460;2024-03-23T05:52:27;100680.00;;;3.33;100.00
58473;BME280;44775;51.564;5.460;2024-03-23T05:54:52;100669.44;;;3.33;100.00
58473;BME280;44775;51.564;5.460;2024-03-23T05:57:17;100670.81;;;3.48;100.00
58473;BME280;44775;51.564;5.460;2024-03-23T05:59:44;100677.00;;;3.38;100.00
58473;BME280;44775;51.564;5.460;2024-03-23T06:02:09;100670.03;;;3.37;100.00
58473;BME280;44775;51.564;5.460;2024-03-23T06:04:35;100672.66;;;3.37;100.00
58473;BME280;44775;51.564;5.460;2024-03-23T06:07:01;100676.13;;;3.37;100.00
58473;BME280;44775;51.564;5.460;2024-03-23T06:09:26;100680.47;;;3.38;100.00
58473;BME280;44775;51.564;5.460;2024-03-23T06:11:51;100685.50;;;3.41;100.00
58473;BME280;44775;51.564;5.460;2024-03-23T06:14:16;100691.22;;;3.46;100.00
58473;BME280;44775;51.564;5.460;2024-03-23T06:16:41;100690.25;;;3.47;100.00
58473;BME280;44775;51.564;5.460;2024-03-23T06:19:07;100685.84;;;3.48;100.00
58473;BME280;44775;51.564;5.460;2024-03-23T06:21:32;100685.44;;;3.52;100.00
58473;BME280;44775;51.564;5.460;2024-03-23T06:23:58;100692.41;;;3.53;100.00
58473;BME280;44775;51.564;5.460;2024-03-23T06:26:23;100690.66;;;3.64;100.00
58473;BME280;44775;51.564;5.460;2024-03-23T06:28:48;100690.09;;;3.81;100.00
58473;BME280;44775;51.564;5.460;2024-03-23T06:31:14;100692.63;;;4.03;100.00
58473;BME280;44775;51.564;5.460;2024-03-23T06:33:39;100698.94;;;4.12;100.00
58473;BME280;44775;51.564;5.460;2024-03-23T06:36:06;100690.09;;;4.23;100.00
58473;BME280;44775;51.564;5.460;2024-03-23T06:38:31;100691.28;;;4.40;100.00
58473;BME280;44775;51.564;5.460;2024-03-23T06:40:56;100688.94;;;4.46;100.00
58473;BME280;44775;51.564;5.460;2024-03-23T06:43:22;100697.31;;;4.52;100.00
58473;BME280;44775;51.564;5.460;2024-03-23T06:45:53;100690.72;;;4.77;100.00
58473;BME280;44775;51.564;5.460;2024-03-23T06:48:18;100694.31;;;4.76;100.00
58473;BME280;44775;51.564;5.460;2024-03-23T06:50:44;100694.53;;;4.93;100.00
58473;BME280;44775;51.564;5.460;2024-03-23T06:53:09;100700.16;;;5.29;100.00
58473;BME280;44775;51.564;5.460;2024-03-23T06:55:34;100704.50;;;5.30;100.00
58473;BME280;44775;51.564;5.460;2024-03-23T06:58:00;100701.00;;;5.39;100.00
58473;BME280;44775;51.564;5.460;2024-03-23T07:00:25;100702.00;;;5.58;100.00
58473;BME280;44775;51.564;5.460;2024-03-23T07:02:51;100699.72;;;5.53;100.00
58473;BME280;44775;51.564;5.460;2024-03-23T07:05:16;100707.69;;;5.53;100.00
58473;BME280;44775;51.564;5.460;2024-03-23T07:07:41;100699.75;;;5.63;100.00
58473;BME280;44775;51.564;5.460;2024-03-23T07:10:06;100701.66;;;5.90;100.00
58473;BME280;44775;51.564;5.460;2024-03-23T07:12:32;100707.69;;;6.11;100.00
58473;BME280;44775;51.564;5.460;2024-03-23T07:14:57;100707.13;;;6.18;100.00
58473;BME280;44775;51.564;5.460;2024-03-23T07:17:22;100714.63;;;6.22;100.00
58473;BME280;44775;51.564;5.460;2024-03-23T07:19:47;100716.00;;;6.26;100.00
58473;BME280;44775;51.564;5.460;2024-03-23T07:22:13;100719.78;;;6.24;100.00
58473;BME280;44775;51.564;5.460;2024-03-23T07:24:38;100717.09;;;6.33;100.00
58473;BME280;44775;51.564;5.460;2024-03-23T07:27:04;100714.50;;;6.14;100.00
58473;BME280;44775;51.564;5.460;2024-03-23T07:29:29;100715.19;;;6.16;100.00
58473;BME280;44775;51.564;5.460;2024-03-23T07:31:54;100714.16;;;6.36;100.00
58473;BME280;44775;51.564;5.460;2024-03-23T07:34:20;100714.34;;;6.25;100.00
58473;BME280;44775;51.564;5.460;2024-03-23T07:36:45;100716.00;;;6.36;100.00
58473;BME280;44775;51.564;5.460;2024-03-23T07:39:10;100716.06;;;6.54;100.00
58473;BME280;44775;51.564;5.460;2024-03-23T07:41:36;100715.25;;;6.81;100.00
58473;BME280;44775;51.564;5.460;2024-03-23T07:44:01;100712.13;;;7.13;100.00
58473;BME280;44775;51.564;5.460;2024-03-23T07:46:26;100704.56;;;7.36;100.00
58473;BME280;44775;51.564;5.460;2024-03-23T07:48:52;100706.53;;;7.52;100.00
58473;BME280;44775;51.564;5.460;2024-03-23T07:51:19;100709.72;;;7.73;100.00
58473;BME280;44775;51.564;5.460;2024-03-23T07:53:45;100714.63;;;8.04;100.00
58473;BME280;44775;51.564;5.460;2024-03-23T07:56:17;100707.31;;;8.06;100.00
58473;BME280;44775;51.564;5.460;2024-03-23T07:58:44;100715.19;;;8.16;100.00
58473;BME280;44775;51.564;5.460;2024-03-23T08:01:10;100715.31;;;8.32;100.00
58473;BME280;44775;51.564;5.460;2024-03-23T08:03:36;100710.59;;;8.44;100.00
58473;BME280;44775;51.564;5.460;2024-03-23T08:08:36;100710.63;;;8.52;100.00
58473;BME280;44775;51.564;5.460;2024-03-23T08:11:01;100708.66;;;8.62;100.00
58473;BME280;44775;51.564;5.460;2024-03-23T08:13:26;100717.25;;;8.82;100.00
58473;BME280;44775;51.564;5.460;2024-03-23T08:15:51;100717.59;;;8.87;100.00
58473;BME280;44775;51.564;5.460;2024-03-23T08:18:17;100714.72;;;9.15;100.00
58473;BME280;44775;51.564;5.460;2024-03-23T08:20:42;100716.06;;;8.77;100.00
58473;BME280;44775;51.564;5.460;2024-03-23T08:23:07;100718.78;;;8.85;100.00
58473;BME280;44775;51.564;5.460;2024-03-23T08:25:32;100712.03;;;8.64;100.00
58473;BME280;44775;51.564;5.460;2024-03-23T08:27:58;100714.69;;;8.64;100.00
58473;BME280;44775;51.564;5.460;2024-03-23T08:30:23;100719.00;;;8.65;100.00
58473;BME280;44775;51.564;5.460;2024-03-23T08:32:48;100716.69;;;8.70;100.00
58473;BME280;44775;51.564;5.460;2024-03-23T08:35:13;100716.75;;;8.87;100.00
58473;BME280;44775;51.564;5.460;2024-03-23T08:37:39;100717.56;;;9.30;100.00
58473;BME280;44775;51.564;5.460;2024-03-23T08:40:04;100718.28;;;9.56;100.00
58473;BME280;44775;51.564;5.460;2024-03-23T08:42:30;100713.41;;;9.35;100.00
58473;BME280;44775;51.564;5.460;2024-03-23T08:44:55;100705.41;;;9.35;100.00
58473;BME280;44775;51.564;5.460;2024-03-23T08:47:20;100706.53;;;9.25;100.00
58473;BME280;44775;51.564;5.460;2024-03-23T08:49:45;100709.06;;;9.34;100.00
58473;BME280;44775;51.564;5.460;2024-03-23T08:52:11;100708.28;;;9.75;100.00
58473;BME280;44775;51.564;5.460;2024-03-23T08:54:36;100706.94;;;9.62;100.00
58473;BME280;44775;51.564;5.460;2024-03-23T08:57:01;100713.28;;;9.69;100.00
58473;BME280;44775;51.564;5.460;2024-03-23T08:59:26;100715.13;;;9.69;100.00
58473;BME280;44775;51.564;5.460;2024-03-23T09:01:52;100714.28;;;9.77;100.00
58473;BME280;44775;51.564;5.460;2024-03-23T09:04:18;100698.28;;;9.60;100.00
58473;BME280;44775;51.564;5.460;2024-03-23T09:06:43;100709.75;;;9.44;100.00
58473;BME280;44775;51.564;5.460;2024-03-23T09:09:08;100715.69;;;9.14;100.00
58473;BME280;44775;51.564;5.460;2024-03-23T09:11:33;100718.31;;;8.63;100.00
58473;BME280;44775;51.564;5.460;2024-03-23T09:13:58;100714.94;;;8.53;100.00
58473;BME280;44775;51.564;5.460;2024-03-23T09:16:24;100726.63;;;8.08;100.00
58473;BME280;44775;51.564;5.460;2024-03-23T09:18:49;100714.72;;;7.94;100.00
58473;BME280;44775;51.564;5.460;2024-03-23T09:21:14;100717.63;;;7.65;100.00
58473;BME280;44775;51.564;5.460;2024-03-23T09:23:43;100714.75;;;7.23;100.00
58473;BME280;44775;51.564;5.460;2024-03-23T09:26:08;100717.88;;;7.08;100.00
58473;BME280;44775;51.564;5.460;2024-03-23T09:28:33;100713.81;;;7.14;100.00
58473;BME280;44775;51.564;5.460;2024-03-23T09:31:05;100697.13;;;7.57;100.00
58473;BME280;44775;51.564;5.460;2024-03-23T09:33:30;100703.72;;;8.15;100.00
58473;BME280;44775;51.564;5.460;2024-03-23T09:35:56;100697.41;;;8.42;100.00
58473;BME280;44775;51.564;5.460;2024-03-23T09:38:21;100703.22;;;8.72;100.00
58473;BME280;44775;51.564;5.460;2024-03-23T09:40:46;100698.84;;;9.13;100.00
58473;BME280;44775;51.564;5.460;2024-03-23T09:43:13;100694.94;;;9.42;100.00
58473;BME280;44775;51.564;5.460;2024-03-23T09:45:38;100697.78;;;9.73;100.00
58473;BME280;44775;51.564;5.460;2024-03-23T09:48:04;100697.59;;;9.99;100.00
58473;BME280;44775;51.564;5.460;2024-03-23T09:50:30;100694.09;;;10.07;100.00
58473;BME280;44775;51.564;5.460;2024-03-23T09:52:56;100689.56;;;10.15;100.00
58473;BME280;44775;51.564;5.460;2024-03-23T09:55:21;100684.53;;;10.37;100.00
58473;BME280;44775;51.564;5.460;2024-03-23T09:57:46;100691.59;;;10.69;100.00
58473;BME280;44775;51.564;5.460;2024-03-23T10:00:11;100687.53;;;11.21;100.00
58473;BME280;44775;51.564;5.460;2024-03-23T10:02:37;100693.34;;;11.47;100.00
58473;BME280;44775;51.564;5.460;2024-03-23T10:05:02;100686.81;;;11.50;100.00
58473;BME280;44775;51.564;5.460;2024-03-23T10:07:27;100689.38;;;11.89;100.00
58473;BME280;44775;51.564;5.460;2024-03-23T10:09:56;100686.81;;;11.96;100.00
58473;BME280;44775;51.564;5.460;2024-03-23T10:12:22;100689.25;;;11.37;98.51
58473;BME280;44775;51.564;5.460;2024-03-23T10:14:47;100690.38;;;11.42;100.00
58473;BME280;44775;51.564;5.460;2024-03-23T10:17:16;100688.38;;;11.44;100.00
58473;BME280;44775;51.564;5.460;2024-03-23T10:19:45;100698.06;;;11.45;100.00
58473;BME280;44775;51.564;5.460;2024-03-23T10:22:13;100702.25;;;11.40;100.00
58473;BME280;44775;51.564;5.460;2024-03-23T10:24:38;100695.84;;;10.95;100.00
58473;BME280;44775;51.564;5.460;2024-03-23T10:27:03;100696.94;;;10.77;100.00
58473;BME280;44775;51.564;5.460;2024-03-23T10:29:29;100699.47;;;10.71;100.00
58473;BME280;44775;51.564;5.460;2024-03-23T10:31:55;100699.72;;;10.45;100.00
58473;BME280;44775;51.564;5.460;2024-03-23T10:34:32;100712.38;;;10.51;100.00
58473;BME280;44775;51.564;5.460;2024-03-23T10:36:57;100748.16;;;10.97;100.00
58473;BME280;44775;51.564;5.460;2024-03-23T10:39:23;100745.47;;;10.50;100.00
58473;BME280;44775;51.564;5.460;2024-03-23T10:41:49;100719.13;;;9.49;100.00
58473;BME280;44775;51.564;5.460;2024-03-23T10:44:16;100724.75;;;9.29;100.00
58473;BME280;44775;51.564;5.460;2024-03-23T10:46:43;100714.59;;;8.82;100.00
58473;BME280;44775;51.564;5.460;2024-03-23T10:49:08;100714.19;;;9.11;100.00
58473;BME280;44775;51.564;5.460;2024-03-23T10:51:33;100708.09;;;9.35;100.00
58473;BME280;44775;51.564;5.460;2024-03-23T10:53:58;100703.97;;;9.65;100.00
58473;BME280;44775;51.564;5.460;2024-03-23T10:56:25;100695.59;;;9.77;100.00
58473;BME280;44775;51.564;5.460;2024-03-23T10:58:51;100693.59;;;10.03;100.00
58473;BME280;44775;51.564;5.460;2024-03-23T11:01:16;100693.34;;;10.46;100.00
58473;BME280;44775;51.564;5.460;2024-03-23T11:03:46;100692.09;;;10.73;100.00
58473;BME280;44775;51.564;5.460;2024-03-23T11:06:12;100695.31;;;10.99;100.00
58473;BME280;44775;51.564;5.460;2024-03-23T11:08:56;100689.69;;;11.48;100.00
58473;BME280;44775;51.564;5.460;2024-03-23T11:11:21;100699.34;;;11.72;100.00
58473;BME280;44775;51.564;5.460;2024-03-23T11:13:48;100690.78;;;12.00;100.00
58473;BME280;44775;51.564;5.460;2024-03-23T11:16:21;100693.13;;;12.47;100.00
58473;BME280;44775;51.564;5.460;2024-03-23T11:18:47;100680.94;;;12.60;100.00
58473;BME280;44775;51.564;5.460;2024-03-23T11:24:13;100694.97;;;13.92;100.00
58473;BME280;44775;51.564;5.460;2024-03-23T11:26:39;100691.34;;;13.78;94.15
58473;BME280;44775;51.564;5.460;2024-03-23T11:29:11;100696.09;;;13.76;100.00
58473;BME280;44775;51.564;5.460;2024-03-23T11:31:37;100694.25;;;14.33;93.79
58473;BME280;44775;51.564;5.460;2024-03-23T11:34:05;100693.06;;;14.07;87.36
58473;BME280;44775;51.564;5.460;2024-03-23T11:36:31;100682.16;;;13.87;83.17
58473;BME280;44775;51.564;5.460;2024-03-23T11:38:56;100697.25;;;13.67;78.81
58473;BME280;44775;51.564;5.460;2024-03-23T11:41:21;100700.84;;;13.02;80.73
58473;BME280;44775;51.564;5.460;2024-03-23T11:43:46;100695.22;;;12.96;82.58
58473;BME280;44775;51.564;5.460;2024-03-23T11:46:12;100688.47;;;12.86;83.26
58473;BME280;44775;51.564;5.460;2024-03-23T11:48:49;100684.97;;;13.00;79.59
58473;BME280;44775;51.564;5.460;2024-03-23T11:51:14;100691.09;;;12.64;80.83
58473;BME280;44775;51.564;5.460;2024-03-23T11:53:39;100703.00;;;12.62;72.43
58473;BME280;44775;51.564;5.460;2024-03-23T11:56:05;100681.97;;;12.29;76.14
58473;BME280;44775;51.564;5.460;2024-03-23T11:58:30;100697.53;;;12.11;71.76
58473;BME280;44775;51.564;5.460;2024-03-23T12:00:56;100705.47;;;11.81;72.95
58473;BME280;44775;51.564;5.460;2024-03-23T12:03:22;100709.19;;;11.34;78.30
58473;BME280;44775;51.564;5.460;2024-03-23T12:05:51;100694.47;;;11.07;78.80
58473;BME280;44775;51.564;5.460;2024-03-23T12:10:53;100699.59;;;10.13;81.48
58473;BME280;44775;51.564;5.460;2024-03-23T12:13:19;100687.94;;;9.49;86.60
58473;BME280;44775;51.564;5.460;2024-03-23T12:15:45;100683.50;;;8.99;91.01
58473;BME280;44775;51.564;5.460;2024-03-23T12:18:11;100683.09;;;8.78;99.01
58473;BME280;44775;51.564;5.460;2024-03-23T12:20:37;100678.81;;;8.85;94.11
58473;BME280;44775;51.564;5.460;2024-03-23T12:23:06;100681.66;;;9.08;92.33
58473;BME280;44775;51.564;5.460;2024-03-23T12:25:31;100688.38;;;9.12;94.96
58473;BME280;44775;51.564;5.460;2024-03-23T12:28:00;100667.56;;;9.48;97.81
58473;BME280;44775;51.564;5.460;2024-03-23T12:30:25;100662.06;;;10.07;95.49
58473;BME280;44775;51.564;5.460;2024-03-23T12:32:50;100669.72;;;10.26;92.72
58473;BME280;44775;51.564;5.460;2024-03-23T12:35:15;100662.03;;;10.23;94.38
58473;BME280;44775;51.564;5.460;2024-03-23T12:37:40;100672.53;;;10.08;96.45
58473;BME280;44775;51.564;5.460;2024-03-23T12:40:06;100666.53;;;10.14;98.33
58473;BME280;44775;51.564;5.460;2024-03-23T12:42:32;100663.41;;;9.94;97.42
58473;BME280;44775;51.564;5.460;2024-03-23T12:44:57;100660.72;;;10.03;96.01
58473;BME280;44775;51.564;5.460;2024-03-23T12:47:22;100662.91;;;9.99;95.01
58473;BME280;44775;51.564;5.460;2024-03-23T12:49:47;100655.56;;;9.28;100.00
58473;BME280;44775;51.564;5.460;2024-03-23T12:52:14;100660.34;;;8.91;100.00
58473;BME280;44775;51.564;5.460;2024-03-23T12:54:39;100665.84;;;8.98;100.00
58473;BME280;44775;51.564;5.460;2024-03-23T12:57:05;100674.56;;;8.74;100.00
58473;BME280;44775;51.564;5.460;2024-03-23T12:59:30;100676.78;;;8.87;100.00
58473;BME280;44775;51.564;5.460;2024-03-23T13:01:55;100672.28;;;8.87;100.00
58473;BME280;44775;51.564;5.460;2024-03-23T13:04:20;100672.97;;;8.89;100.00
58473;BME280;44775;51.564;5.460;2024-03-23T13:06:46;100675.31;;;9.01;100.00
58473;BME280;44775;51.564;5.460;2024-03-23T13:09:11;100667.84;;;8.96;100.00
58473;BME280;44775;51.564;5.460;2024-03-23T13:11:36;100680.53;;;9.10;100.00
58473;BME280;44775;51.564;5.460;2024-03-23T13:14:01;100676.66;;;8.96;100.00
58473;BME280;44775;51.564;5.460;2024-03-23T13:16:28;100674.25;;;8.77;100.00
58473;BME280;44775;51.564;5.460;2024-03-23T13:18:53;100671.63;;;8.85;100.00
58473;BME280;44775;51.564;5.460;2024-03-23T13:21:18;100684.88;;;8.61;100.00
58473;BME280;44775;51.564;5.460;2024-03-23T13:23:46;100684.78;;;8.44;100.00
58473;BME280;44775;51.564;5.460;2024-03-23T13:26:13;100667.84;;;8.96;100.00
58473;BME280;44775;51.564;5.460;2024-03-23T13:28:38;100665.06;;;9.55;100.00
58473;BME280;44775;51.564;5.460;2024-03-23T13:31:03;100660.22;;;9.91;100.00
58473;BME280;44775;51.564;5.460;2024-03-23T13:33:29;100653.88;;;9.92;100.00
58473;BME280;44775;51.564;5.460;2024-03-23T13:35:55;100651.09;;;9.53;100.00
58473;BME280;44775;51.564;5.460;2024-03-23T13:38:21;100649.25;;;9.37;100.00
58473;BME280;44775;51.564;5.460;2024-03-23T13:40:53;100638.41;;;9.22;100.00
58473;BME280;44775;51.564;5.460;2024-03-23T13:43:19;100648.25;;;9.46;100.00